createdAt,value
2023-04-16T00:01:47.648Z,5.50
2023-04-16T00:04:14.452Z,5.85
2023-04-16T00:06:41.228Z,5.53
2023-04-16T00:09:08.141Z,6.35
2023-04-16T00:11:34.902Z,5.38
2023-04-16T00:14:01.659Z,4.85
2023-04-16T00:16:28.515Z,5.15
2023-04-16T00:18:55.343Z,6.00
2023-04-16T00:21:22.113Z,5.93
2023-04-16T00:23:48.748Z,6.15
2023-04-16T00:26:16.088Z,5.55
2023-04-16T00:28:44.802Z,5.55
2023-04-16T00:31:11.467Z,6.15
2023-04-16T00:33:38.126Z,6.10
2023-04-16T00:36:05.277Z,6.90
2023-04-16T00:38:32.550Z,6.20
2023-04-16T00:40:59.395Z,6.63
2023-04-16T00:43:27.220Z,6.63
2023-04-16T00:45:56.969Z,5.95
2023-04-16T00:48:23.830Z,6.60
2023-04-16T00:50:50.643Z,6.85
2023-04-16T00:53:17.446Z,6.00
2023-04-16T00:55:44.530Z,6.85
2023-04-16T00:58:11.556Z,7.85
2023-04-16T01:00:38.256Z,7.65
2023-04-16T01:03:05.419Z,7.60
2023-04-16T01:05:32.237Z,6.95
2023-04-16T01:08:02.649Z,7.00
2023-04-16T01:10:29.400Z,7.70
2023-04-16T01:12:56.149Z,7.63
2023-04-16T01:15:22.808Z,8.27
2023-04-16T01:17:49.539Z,7.88
2023-04-16T01:20:16.416Z,7.97
2023-04-16T01:22:43.094Z,9.18
2023-04-16T01:25:15.834Z,8.20
2023-04-16T01:27:42.690Z,8.07
2023-04-16T01:30:09.887Z,8.73
2023-04-16T01:32:53.013Z,8.60
2023-04-16T01:35:19.793Z,8.95
2023-04-16T01:37:46.768Z,9.02
2023-04-16T01:40:13.603Z,9.38
2023-04-16T01:42:40.532Z,7.53
2023-04-16T01:45:07.992Z,9.77
2023-04-16T01:47:34.734Z,8.63
2023-04-16T01:50:03.398Z,9.35
2023-04-16T01:52:30.175Z,9.68
2023-04-16T01:54:57.470Z,10.65
2023-04-16T01:57:24.151Z,10.45
2023-04-16T01:59:50.973Z,9.57
2023-04-16T02:02:17.998Z,10.32
2023-04-16T02:04:46.348Z,10.32
2023-04-16T02:07:13.075Z,10.70
2023-04-16T02:09:41.098Z,9.63
2023-04-16T02:12:09.555Z,10.68
2023-04-16T02:14:36.196Z,10.43
2023-04-16T02:17:03.377Z,10.95
2023-04-16T02:19:43.033Z,11.73
2023-04-16T02:22:10.566Z,9.68
2023-04-16T02:24:37.293Z,11.40
2023-04-16T02:27:08.005Z,11.50
2023-04-16T02:29:35.297Z,11.90
2023-04-16T02:32:09.938Z,11.15
2023-04-16T02:34:39.898Z,11.27
2023-04-16T02:37:06.636Z,13.20
2023-04-16T02:39:33.499Z,13.23
2023-04-16T02:42:02.553Z,12.05
2023-04-16T02:44:29.413Z,11.82
2023-04-16T02:46:56.129Z,12.48
2023-04-16T02:49:22.996Z,12.77
2023-04-16T02:51:49.766Z,12.88
2023-04-16T02:54:16.598Z,13.13
2023-04-16T02:56:43.353Z,13.45
2023-04-16T02:59:10.503Z,13.27
2023-04-16T03:01:37.629Z,13.43
2023-04-16T03:04:04.903Z,14.85
2023-04-16T03:06:31.730Z,13.40
2023-04-16T03:08:58.686Z,14.32
2023-04-16T03:11:25.425Z,15.02
2023-04-16T03:13:52.205Z,12.27
2023-04-16T03:16:21.843Z,14.05
2023-04-16T03:18:48.893Z,14.25
2023-04-16T03:21:17.251Z,14.23
2023-04-16T03:23:44.183Z,13.43
2023-04-16T03:26:11.004Z,14.00
2023-04-16T03:28:37.778Z,14.10
2023-04-16T03:31:07.844Z,13.63
2023-04-16T03:33:35.795Z,15.90
2023-04-16T03:36:03.435Z,16.45
2023-04-16T03:38:31.311Z,14.40
2023-04-16T03:40:59.312Z,14.88
2023-04-16T03:43:26.927Z,16.17
2023-04-16T03:45:53.695Z,15.95
2023-04-16T03:48:23.311Z,14.80
2023-04-16T03:50:50.357Z,15.55
2023-04-16T03:53:19.356Z,16.10
2023-04-16T03:55:51.612Z,16.92
2023-04-16T03:58:20.281Z,15.40
2023-04-16T04:00:47.921Z,15.93
2023-04-16T04:03:19.220Z,15.82
2023-04-16T04:05:48.702Z,16.83
2023-04-16T04:08:20.808Z,16.25
2023-04-16T04:10:47.589Z,15.13
2023-04-16T04:13:15.012Z,17.20
2023-04-16T04:15:42.505Z,14.95
2023-04-16T04:18:09.272Z,14.90
2023-04-16T04:20:41.134Z,14.52
2023-04-16T04:23:08.481Z,15.02
2023-04-16T04:25:35.368Z,14.85
2023-04-16T04:28:02.221Z,14.60
2023-04-16T04:30:29.134Z,14.82
2023-04-16T04:32:56.060Z,15.10
2023-04-16T04:35:22.909Z,15.68
2023-04-16T04:37:49.914Z,14.93
2023-04-16T04:40:19.677Z,13.48
2023-04-16T04:42:46.712Z,13.32
2023-04-16T04:45:15.438Z,14.82
2023-04-16T04:47:42.393Z,15.15
2023-04-16T04:50:09.860Z,14.57
2023-04-16T04:52:36.779Z,15.48
2023-04-16T04:55:03.782Z,15.88
2023-04-16T04:57:30.850Z,15.40
2023-04-16T05:00:03.553Z,14.30
2023-04-16T05:02:38.945Z,14.52
2023-04-16T05:05:06.484Z,17.65
2023-04-16T05:07:33.400Z,16.52
2023-04-16T05:10:00.627Z,15.45
2023-04-16T05:12:27.493Z,16.00
2023-04-16T05:14:54.331Z,16.33
2023-04-16T05:17:21.266Z,16.00
2023-04-16T05:19:48.170Z,16.48
2023-04-16T05:22:18.964Z,14.23
2023-04-16T05:24:45.792Z,14.05
2023-04-16T05:27:12.749Z,16.45
2023-04-16T05:29:39.589Z,17.75
2023-04-16T05:32:06.428Z,15.90
2023-04-16T05:34:33.187Z,14.75
2023-04-16T05:37:00.953Z,15.15
2023-04-16T05:39:27.729Z,15.95
2023-04-16T05:41:54.470Z,15.63
2023-04-16T05:44:21.465Z,14.02
2023-04-16T05:46:48.360Z,15.23
2023-04-16T05:49:18.709Z,14.85
2023-04-16T05:51:45.974Z,13.90
2023-04-16T05:54:12.798Z,14.85
2023-04-16T05:56:39.642Z,16.20
2023-04-16T05:59:06.522Z,14.13
2023-04-16T06:01:34.382Z,16.17
2023-04-16T06:04:01.348Z,14.50
2023-04-16T06:06:28.220Z,14.80
2023-04-16T06:08:54.971Z,16.02
2023-04-16T06:11:22.211Z,14.32
2023-04-16T06:13:49.005Z,15.63
2023-04-16T06:16:16.023Z,15.10
2023-04-16T06:18:42.825Z,14.18
2023-04-16T06:21:09.690Z,14.73
2023-04-16T06:23:36.486Z,14.55
2023-04-16T06:26:03.267Z,15.20
2023-04-16T06:28:30.236Z,14.85
2023-04-16T06:30:57.221Z,14.73
2023-04-16T06:33:24.060Z,14.27
2023-04-16T06:35:50.895Z,14.35
2023-04-16T06:38:17.654Z,16.17
2023-04-16T06:40:44.594Z,17.17
2023-04-16T06:43:11.828Z,14.68
2023-04-16T06:45:39.248Z,13.43
2023-04-16T06:48:06.274Z,15.85
2023-04-16T06:50:33.176Z,16.08
2023-04-16T06:53:00.188Z,16.83
2023-04-16T06:55:26.926Z,15.70
2023-04-16T06:57:53.710Z,17.50
2023-04-16T07:00:20.734Z,17.90
2023-04-16T07:02:47.776Z,17.48
2023-04-16T07:05:14.800Z,18.05
2023-04-16T07:07:41.802Z,18.77
2023-04-16T07:10:09.253Z,17.92
2023-04-16T07:12:36.308Z,19.48
2023-04-16T07:15:03.303Z,18.88
2023-04-16T07:17:30.111Z,19.63
2023-04-16T07:19:56.952Z,20.75
2023-04-16T07:22:23.704Z,20.65
2023-04-16T07:24:50.685Z,18.92
2023-04-16T07:27:17.422Z,22.38
2023-04-16T07:29:45.636Z,22.35
2023-04-16T07:32:14.771Z,23.20
2023-04-16T07:34:42.325Z,21.10
2023-04-16T07:37:09.186Z,24.02
2023-04-16T07:39:35.973Z,22.95
2023-04-16T07:42:02.785Z,23.38
2023-04-16T07:44:30.119Z,25.02
2023-04-16T07:46:56.968Z,23.80
2023-04-16T07:49:23.974Z,24.33
2023-04-16T07:51:50.779Z,24.77
2023-04-16T07:54:17.603Z,23.92
2023-04-16T07:56:44.304Z,23.38
2023-04-16T07:59:21.892Z,20.88
2023-04-16T08:01:50.435Z,20.83
2023-04-16T08:04:23.125Z,20.33
2023-04-16T08:06:51.552Z,19.05
2023-04-16T08:09:23.732Z,19.58
2023-04-16T08:11:50.938Z,19.27
2023-04-16T08:14:17.926Z,17.33
2023-04-16T08:16:44.909Z,18.65
2023-04-16T08:19:11.851Z,18.90
2023-04-16T08:21:39.212Z,20.48
2023-04-16T08:24:06.370Z,20.20
2023-04-16T08:26:33.145Z,21.83
2023-04-16T08:28:59.943Z,21.70
2023-04-16T08:31:27.056Z,24.15
2023-04-16T08:33:53.856Z,21.17
2023-04-16T08:36:20.889Z,21.10
2023-04-16T08:38:47.647Z,20.52
2023-04-16T08:41:15.010Z,21.40
2023-04-16T08:43:45.434Z,20.70
2023-04-16T08:46:14.253Z,20.95
2023-04-16T08:48:43.484Z,20.95
2023-04-16T08:51:12.124Z,21.38
2023-04-16T08:54:02.283Z,20.83
2023-04-16T08:56:32.018Z,21.65
2023-04-16T08:59:02.024Z,21.40
2023-04-16T09:01:29.599Z,20.58
2023-04-16T09:03:56.780Z,20.80
2023-04-16T09:06:23.691Z,21.88
2023-04-16T09:08:52.513Z,22.00
2023-04-16T09:11:19.905Z,23.98
2023-04-16T09:13:47.808Z,23.50
2023-04-16T09:16:17.167Z,23.52
2023-04-16T09:18:44.074Z,22.05
2023-04-16T09:21:11.311Z,19.05
2023-04-16T09:23:38.949Z,20.27
2023-04-16T09:26:06.304Z,19.73
2023-04-16T09:28:45.616Z,20.88
2023-04-16T09:31:17.760Z,20.30
2023-04-16T09:34:02.179Z,20.50
2023-04-16T09:36:29.596Z,19.20
2023-04-16T09:38:57.788Z,20.70
2023-04-16T09:41:29.816Z,22.02
2023-04-16T09:43:59.690Z,21.83
2023-04-16T09:46:36.571Z,21.38
2023-04-16T09:49:17.159Z,21.00
2023-04-16T09:51:47.202Z,20.13
2023-04-16T09:54:14.129Z,18.73
2023-04-16T09:56:44.016Z,19.85
2023-04-16T09:59:25.363Z,18.73
2023-04-16T10:02:15.723Z,19.38
2023-04-16T10:04:54.950Z,18.55
2023-04-16T10:07:22.221Z,18.50
2023-04-16T10:09:50.155Z,19.58
2023-04-16T10:12:17.018Z,20.42
2023-04-16T10:14:44.168Z,20.73
2023-04-16T10:17:11.084Z,20.40
2023-04-16T10:19:38.123Z,20.40
2023-04-16T10:22:07.761Z,20.13
2023-04-16T10:24:35.555Z,20.15
2023-04-16T10:27:02.753Z,19.58
2023-04-16T10:29:31.855Z,21.42
2023-04-16T10:32:00.158Z,20.60
2023-04-16T10:34:31.372Z,21.75
2023-04-16T10:36:58.203Z,19.80
2023-04-16T10:39:28.379Z,20.75
2023-04-16T10:42:13.089Z,20.45
2023-04-16T10:44:44.321Z,20.90
2023-04-16T10:47:14.005Z,19.20
2023-04-16T10:49:42.649Z,19.80
2023-04-16T10:52:19.463Z,18.75
2023-04-16T10:54:50.336Z,19.17
2023-04-16T10:57:19.611Z,18.90
2023-04-16T10:59:48.793Z,17.35
2023-04-16T11:02:18.822Z,17.55
2023-04-16T11:04:48.565Z,17.30
2023-04-16T11:07:31.228Z,17.80
2023-04-16T11:10:06.203Z,17.85
2023-04-16T11:12:40.405Z,17.02
2023-04-16T11:15:15.450Z,18.92
2023-04-16T11:17:52.575Z,17.67
2023-04-16T11:20:24.859Z,16.85
2023-04-16T11:22:54.940Z,19.10
2023-04-16T11:25:30.397Z,19.90
2023-04-16T11:27:59.192Z,19.67
2023-04-16T11:30:35.453Z,19.83
2023-04-16T11:33:11.216Z,19.77
2023-04-16T11:35:39.881Z,19.77
2023-04-16T11:38:07.306Z,18.13
2023-04-16T11:40:34.707Z,18.23
2023-04-16T11:43:15.734Z,23.33
2023-04-16T11:45:59.916Z,17.67
2023-04-16T11:48:46.817Z,19.80
2023-04-16T11:51:14.272Z,15.25
2023-04-16T11:53:53.182Z,17.48
2023-04-16T11:56:32.159Z,17.67
2023-04-16T11:59:12.406Z,19.13
2023-04-16T12:01:42.271Z,14.80
2023-04-16T12:04:09.602Z,16.38
2023-04-16T12:06:36.667Z,13.95
2023-04-16T12:09:27.085Z,14.77
2023-04-16T12:11:54.170Z,13.55
2023-04-16T12:14:21.502Z,15.82
2023-04-16T12:16:48.414Z,13.18
2023-04-16T12:19:15.595Z,13.18
2023-04-16T12:21:48.476Z,13.30
2023-04-16T12:24:24.082Z,12.70
2023-04-16T12:27:03.151Z,10.93
2023-04-16T12:29:30.012Z,15.30
2023-04-16T12:31:56.766Z,10.98
2023-04-16T12:34:27.748Z,10.15
2023-04-16T12:37:10.527Z,9.18
2023-04-16T12:39:37.200Z,14.77
2023-04-16T12:42:05.877Z,10.45
2023-04-16T12:44:32.641Z,15.43
2023-04-16T12:46:59.364Z,13.93
2023-04-16T12:49:26.030Z,14.10
2023-04-16T12:51:52.790Z,12.98
2023-04-16T12:54:19.463Z,13.43
2023-04-16T12:56:46.479Z,12.68
2023-04-16T12:59:13.187Z,14.65
2023-04-16T13:01:40.019Z,14.85
2023-04-16T13:04:07.590Z,15.00
2023-04-16T13:06:36.767Z,14.52
2023-04-16T13:09:04.610Z,12.60
2023-04-16T13:11:31.920Z,13.48
2023-04-16T13:13:58.780Z,11.88
2023-04-16T13:16:26.115Z,12.20
2023-04-16T13:18:52.824Z,12.82
2023-04-16T13:21:19.549Z,14.05
2023-04-16T13:23:46.211Z,12.57
2023-04-16T13:26:15.052Z,13.02
2023-04-16T13:28:41.771Z,12.55
2023-04-16T13:31:08.701Z,14.30
2023-04-16T13:33:35.465Z,12.60
2023-04-16T13:36:02.159Z,14.52
2023-04-16T13:38:28.872Z,14.20
2023-04-16T13:40:55.595Z,14.60
2023-04-16T13:43:22.383Z,14.10
2023-04-16T13:45:49.158Z,14.52
2023-04-16T13:48:15.962Z,16.63
2023-04-16T13:50:42.646Z,14.75
2023-04-16T13:53:09.417Z,16.25
2023-04-16T13:55:36.290Z,13.52
2023-04-16T13:58:03.317Z,13.98
2023-04-16T14:00:30.125Z,12.50
2023-04-16T14:02:56.946Z,12.32
2023-04-16T14:05:25.221Z,12.93
2023-04-16T14:07:53.232Z,13.90
2023-04-16T14:10:20.354Z,14.43
2023-04-16T14:12:47.085Z,14.30
2023-04-16T14:15:14.997Z,13.25
2023-04-16T14:17:43.939Z,14.75
2023-04-16T14:20:13.723Z,12.30
2023-04-16T14:22:42.387Z,12.07
2023-04-16T14:25:09.180Z,12.75
2023-04-16T14:27:36.068Z,12.68
2023-04-16T14:30:02.808Z,13.07
2023-04-16T14:32:30.535Z,13.02
2023-04-16T14:34:57.489Z,13.15
2023-04-16T14:37:24.486Z,13.20
2023-04-16T14:39:51.223Z,13.43
2023-04-16T14:42:17.930Z,12.10
2023-04-16T14:44:44.583Z,13.68
2023-04-16T14:47:11.543Z,13.75
2023-04-16T14:49:38.263Z,12.60
2023-04-16T14:52:05.799Z,12.27
2023-04-16T14:54:33.560Z,12.07
2023-04-16T14:57:00.431Z,14.02
2023-04-16T14:59:27.081Z,12.75
2023-04-16T15:01:56.790Z,13.60
2023-04-16T15:04:24.731Z,14.25
2023-04-16T15:06:51.595Z,14.18
2023-04-16T15:09:18.249Z,13.15
2023-04-16T15:11:44.913Z,13.45
2023-04-16T15:14:11.711Z,14.70
2023-04-16T15:16:38.685Z,13.25
2023-04-16T15:19:05.652Z,14.02
2023-04-16T15:21:32.858Z,14.70
2023-04-16T15:23:59.671Z,13.63
2023-04-16T15:26:26.441Z,14.48
2023-04-16T15:28:53.177Z,13.55
2023-04-16T15:31:20.956Z,13.05
2023-04-16T15:33:48.805Z,14.25
2023-04-16T15:36:16.300Z,13.30
2023-04-16T15:38:43.099Z,14.38
2023-04-16T15:41:10.731Z,12.82
2023-04-16T15:43:37.794Z,13.90
2023-04-16T15:46:04.667Z,14.15
2023-04-16T15:48:31.440Z,14.00
2023-04-16T15:50:58.124Z,13.07
2023-04-16T15:53:24.973Z,13.23
2023-04-16T15:55:53.633Z,12.75
2023-04-16T15:58:23.563Z,12.65
2023-04-16T16:00:50.686Z,12.63
2023-04-16T16:03:18.786Z,12.63
2023-04-16T16:05:48.933Z,12.18
2023-04-16T16:08:16.259Z,12.90
2023-04-16T16:10:43.129Z,12.73
2023-04-16T16:13:13.161Z,12.68
2023-04-16T16:15:43.059Z,12.88
2023-04-16T16:18:09.998Z,11.68
2023-04-16T16:20:37.139Z,12.98
2023-04-16T16:23:03.910Z,12.52
2023-04-16T16:25:30.674Z,14.15
2023-04-16T16:27:58.747Z,13.80
2023-04-16T16:30:26.368Z,14.65
2023-04-16T16:32:54.054Z,16.38
2023-04-16T16:35:20.980Z,15.60
2023-04-16T16:37:47.666Z,16.80
2023-04-16T16:40:14.601Z,16.10
2023-04-16T16:42:41.264Z,15.75
2023-04-16T16:45:09.034Z,16.75
2023-04-16T16:47:35.881Z,14.35
2023-04-16T16:50:03.271Z,15.40
2023-04-16T16:52:30.103Z,15.65
2023-04-16T16:54:56.910Z,14.70
2023-04-16T16:57:24.031Z,16.85
2023-04-16T16:59:51.095Z,15.68
2023-04-16T17:02:18.516Z,15.52
2023-04-16T17:04:45.351Z,16.17
2023-04-16T17:07:12.052Z,14.48
2023-04-16T17:09:39.428Z,13.45
2023-04-16T17:12:06.755Z,12.05
2023-04-16T17:14:33.865Z,13.50
2023-04-16T17:17:00.606Z,14.25
2023-04-16T17:19:27.547Z,13.13
2023-04-16T17:21:54.317Z,13.40
2023-04-16T17:24:21.006Z,14.63
2023-04-16T17:26:47.687Z,14.80
2023-04-16T17:29:14.404Z,14.27
2023-04-16T17:31:41.302Z,14.63
2023-04-16T17:34:08.101Z,15.10
2023-04-16T17:36:34.833Z,15.73
2023-04-16T17:39:02.408Z,14.70
2023-04-16T17:41:29.137Z,15.05
2023-04-16T17:43:55.837Z,14.63
2023-04-16T17:46:22.546Z,14.90
2023-04-16T17:48:49.286Z,15.00
2023-04-16T17:51:18.937Z,16.52
2023-04-16T17:53:45.879Z,16.80
2023-04-16T17:56:13.918Z,16.35
2023-04-16T17:58:40.710Z,16.83
2023-04-16T18:01:07.490Z,15.82
2023-04-16T18:03:34.554Z,15.98
2023-04-16T18:06:01.355Z,17.40
2023-04-16T18:08:28.778Z,16.40
2023-04-16T18:10:56.698Z,16.65
2023-04-16T18:13:26.380Z,17.23
2023-04-16T18:15:53.666Z,17.95
2023-04-16T18:18:21.305Z,18.75
2023-04-16T18:20:48.021Z,18.90
2023-04-16T18:23:14.840Z,17.20
2023-04-16T18:25:41.767Z,18.27
2023-04-16T18:28:08.495Z,19.70
2023-04-16T18:30:36.332Z,18.77
2023-04-16T18:35:32.619Z,19.15
2023-04-16T18:37:59.361Z,19.40
2023-04-16T18:40:26.190Z,18.73
2023-04-16T18:42:52.870Z,18.60
2023-04-16T18:45:22.003Z,18.02
2023-04-16T18:47:50.184Z,16.35
2023-04-16T18:50:17.174Z,17.60
2023-04-16T18:52:43.986Z,19.17
2023-04-16T18:55:10.818Z,17.25
2023-04-16T18:57:37.633Z,20.08
2023-04-16T19:00:10.827Z,18.40
2023-04-16T19:02:38.658Z,18.63
2023-04-16T19:05:06.204Z,19.02
2023-04-16T19:07:32.968Z,19.17
2023-04-16T19:10:02.329Z,18.48
2023-04-16T19:12:29.020Z,20.35
2023-04-16T19:14:55.849Z,17.77
2023-04-16T19:17:22.600Z,18.35
2023-04-16T19:19:49.423Z,18.52
2023-04-16T19:22:16.160Z,19.52
2023-04-16T19:24:42.821Z,19.48
2023-04-16T19:27:09.547Z,17.98
2023-04-16T19:29:36.218Z,18.55
2023-04-16T19:32:03.053Z,18.60
2023-04-16T19:34:29.862Z,18.27
2023-04-16T19:36:56.509Z,19.67
2023-04-16T19:39:27.730Z,19.48
2023-04-16T19:41:54.469Z,19.75
2023-04-16T19:44:23.118Z,19.17
2023-04-16T19:46:49.874Z,18.73
2023-04-16T19:49:16.599Z,19.92
2023-04-16T19:51:43.257Z,17.63
2023-04-16T19:54:09.980Z,19.30
2023-04-16T19:56:36.681Z,18.70
2023-04-16T19:59:03.366Z,19.20
2023-04-16T20:01:32.848Z,19.42
2023-04-16T20:03:59.712Z,19.33
2023-04-16T20:06:26.812Z,18.90
2023-04-16T20:08:53.540Z,19.58
2023-04-16T20:11:20.460Z,18.85
2023-04-16T20:13:47.842Z,18.27
2023-04-16T20:16:14.685Z,19.52
2023-04-16T20:18:41.512Z,18.48
2023-04-16T20:21:09.912Z,19.55
2023-04-16T20:23:36.604Z,18.95
2023-04-16T20:26:04.507Z,19.40
2023-04-16T20:28:31.170Z,18.35
2023-04-16T20:30:58.263Z,19.13
2023-04-16T20:33:25.232Z,18.38
2023-04-16T20:35:52.262Z,18.30
2023-04-16T20:38:23.694Z,17.83
2023-04-16T20:41:06.514Z,17.35
2023-04-16T20:43:38.520Z,17.52
2023-04-16T20:46:06.083Z,17.00
2023-04-16T20:48:32.987Z,18.15
2023-04-16T20:51:00.989Z,18.80
2023-04-16T20:53:28.014Z,17.88
2023-04-16T20:55:55.137Z,17.25
2023-04-16T20:58:22.432Z,18.00
2023-04-16T21:00:53.376Z,16.45
2023-04-16T21:03:20.876Z,17.23
2023-04-16T21:05:53.119Z,18.05
2023-04-16T21:08:24.156Z,18.02
2023-04-16T21:10:51.224Z,17.75
2023-04-16T21:13:18.632Z,18.17
2023-04-16T21:15:45.933Z,18.58
2023-04-16T21:18:13.089Z,17.98
2023-04-16T21:20:39.921Z,16.13
2023-04-16T21:23:06.768Z,17.05
2023-04-16T21:25:33.631Z,18.25
2023-04-16T21:28:00.523Z,17.30
2023-04-16T21:30:27.317Z,18.90
2023-04-16T21:32:54.122Z,17.90
2023-04-16T21:35:20.802Z,20.05
2023-04-16T21:37:47.487Z,19.80
2023-04-16T21:40:14.363Z,18.67
2023-04-16T21:42:42.363Z,18.70
2023-04-16T21:45:10.409Z,19.05
2023-04-16T21:47:38.215Z,20.85
2023-04-16T21:50:05.960Z,19.42
2023-04-16T21:52:33.100Z,21.67
2023-04-16T21:55:00.596Z,20.85
2023-04-16T21:57:27.312Z,22.77
2023-04-16T21:59:54.033Z,20.80
2023-04-16T22:02:20.944Z,21.23
2023-04-16T22:04:48.616Z,22.98
2023-04-16T22:07:16.674Z,22.55
2023-04-16T22:09:43.652Z,23.60
2023-04-16T22:12:10.493Z,25.40
2023-04-16T22:14:46.275Z,22.38
2023-04-16T22:17:17.094Z,24.60
2023-04-16T22:19:44.569Z,23.48
2023-04-16T22:22:11.259Z,25.63
2023-04-16T22:24:37.937Z,28.65
2023-04-16T22:27:04.690Z,28.98
2023-04-16T22:29:31.406Z,27.52
2023-04-16T22:31:58.160Z,28.13
2023-04-16T22:34:24.897Z,28.90
2023-04-16T22:36:51.598Z,28.48
2023-04-16T22:39:18.741Z,29.08
2023-04-16T22:41:45.455Z,29.58
2023-04-16T22:44:12.115Z,28.45
2023-04-16T22:46:38.992Z,29.40
2023-04-16T22:49:05.738Z,30.15
2023-04-16T22:51:32.444Z,30.55
2023-04-16T22:53:59.085Z,31.35
2023-04-16T22:56:28.769Z,30.70
2023-04-16T22:58:55.672Z,31.15
2023-04-16T23:01:24.005Z,32.65
2023-04-16T23:03:50.806Z,30.50
2023-04-16T23:06:17.510Z,32.63
2023-04-16T23:08:44.193Z,33.88
2023-04-16T23:11:11.244Z,32.67
2023-04-16T23:13:37.927Z,31.35
2023-04-16T23:16:05.024Z,32.63
2023-04-16T23:18:31.817Z,31.83
2023-04-16T23:20:58.437Z,31.23
2023-04-16T23:23:25.119Z,31.70
2023-04-16T23:25:54.979Z,33.92
2023-04-16T23:28:22.176Z,32.28
2023-04-16T23:30:52.895Z,34.13
2023-04-16T23:33:19.803Z,32.45
2023-04-16T23:35:47.377Z,32.88
2023-04-16T23:38:14.179Z,33.72
2023-04-16T23:40:40.853Z,33.00
2023-04-16T23:43:07.511Z,33.72
2023-04-16T23:45:34.222Z,33.80
2023-04-16T23:48:01.039Z,33.10
2023-04-16T23:50:27.750Z,34.58
2023-04-16T23:52:54.428Z,31.55
2023-04-16T23:55:21.344Z,32.28
2023-04-16T23:57:47.996Z,33.25
